createdAt,value
2023-02-23T00:00:35.272Z,97314.00
2023-02-23T00:03:03.450Z,97315.72
2023-02-23T00:05:32.458Z,97315.16
2023-02-23T00:08:00.328Z,97315.59
2023-02-23T00:10:30.587Z,97313.63
2023-02-23T00:13:00.009Z,97310.00
2023-02-23T00:15:28.124Z,97307.84
2023-02-23T00:17:56.391Z,97308.09
2023-02-23T00:20:27.999Z,97308.28
2023-02-23T00:22:56.370Z,97307.56
2023-02-23T00:25:24.560Z,97301.94
2023-02-23T00:27:52.810Z,97303.25
2023-02-23T00:30:22.466Z,97308.66
2023-02-23T00:32:52.537Z,97306.72
2023-02-23T00:35:20.848Z,97303.81
2023-02-23T00:37:49.481Z,97294.09
2023-02-23T00:40:17.887Z,97296.13
2023-02-23T00:42:45.923Z,97295.28
2023-02-23T00:45:14.227Z,97290.84
2023-02-23T00:47:44.620Z,97296.75
2023-02-23T00:50:15.891Z,97298.25
2023-02-23T00:52:44.649Z,97300.63
2023-02-23T00:55:13.022Z,97291.63
2023-02-23T00:57:41.046Z,97283.44
2023-02-23T01:00:20.276Z,97290.31
2023-02-23T01:02:49.669Z,97291.06
2023-02-23T01:05:17.803Z,97282.72
2023-02-23T01:07:47.346Z,97279.66
2023-02-23T01:10:20.893Z,97286.25
2023-02-23T01:12:49.638Z,97287.25
2023-02-23T01:15:18.169Z,97282.47
2023-02-23T01:17:46.518Z,97283.56
2023-02-23T01:20:18.158Z,97280.03
2023-02-23T01:22:54.576Z,97277.38
2023-02-23T01:25:26.836Z,97283.25
2023-02-23T01:27:55.348Z,97280.88
2023-02-23T01:30:30.646Z,97280.19
2023-02-23T01:33:00.923Z,97282.09
2023-02-23T01:35:30.497Z,97273.81
2023-02-23T01:37:58.516Z,97280.19
2023-02-23T01:40:29.788Z,97280.72
2023-02-23T01:42:58.664Z,97274.50
2023-02-23T01:45:29.890Z,97276.53
2023-02-23T01:48:01.745Z,97278.50
2023-02-23T01:50:36.364Z,97278.13
2023-02-23T01:53:04.384Z,97272.59
2023-02-23T01:55:32.427Z,97268.69
2023-02-23T01:58:05.429Z,97265.34
2023-02-23T02:00:36.687Z,97272.97
2023-02-23T02:03:08.768Z,97265.53
2023-02-23T02:05:39.738Z,97264.25
2023-02-23T02:08:10.432Z,97261.56
2023-02-23T02:10:46.580Z,97257.28
2023-02-23T02:13:20.974Z,97264.19
2023-02-23T02:16:17.133Z,97261.66
2023-02-23T02:19:18.536Z,97257.16
2023-02-23T02:22:16.198Z,97260.81
2023-02-23T02:25:13.732Z,97258.25
2023-02-23T02:28:14.170Z,97256.81
2023-02-23T02:31:31.008Z,97267.34
2023-02-23T02:34:11.841Z,97265.03
2023-02-23T02:37:07.170Z,97264.34
2023-02-23T02:39:38.422Z,97270.31
2023-02-23T02:42:13.822Z,97256.97
2023-02-23T02:44:45.696Z,97261.00
2023-02-23T02:47:17.482Z,97260.16
2023-02-23T02:49:48.571Z,97257.63
2023-02-23T02:52:19.606Z,97257.22
2023-02-23T02:54:49.246Z,97251.47
2023-02-23T02:57:17.304Z,97254.16
2023-02-23T03:00:02.981Z,97257.63
2023-02-23T03:02:48.655Z,97249.09
2023-02-23T03:05:34.075Z,97247.09
2023-02-23T03:08:27.105Z,97245.25
2023-02-23T03:11:15.281Z,97249.28
2023-02-23T03:14:15.471Z,97244.06
2023-02-23T03:17:03.962Z,97242.75
2023-02-23T03:19:50.759Z,97247.56
2023-02-23T03:22:38.813Z,97247.09
2023-02-23T03:25:26.991Z,97250.00
2023-02-23T03:28:12.919Z,97246.53
2023-02-23T03:31:04.333Z,97252.81
2023-02-23T03:33:53.701Z,97249.75
2023-02-23T03:36:42.133Z,97253.13
2023-02-23T03:39:33.426Z,97246.47
2023-02-23T03:42:20.416Z,97251.97
2023-02-23T03:45:05.990Z,97253.72
2023-02-23T03:47:53.319Z,97264.56
2023-02-23T03:50:40.283Z,97258.50
2023-02-23T03:53:25.714Z,97262.88
2023-02-23T03:56:12.535Z,97262.72
2023-02-23T03:59:01.148Z,97260.13
2023-02-23T04:01:46.596Z,97259.72
2023-02-23T04:04:31.925Z,97257.56
2023-02-23T04:07:18.727Z,97262.88
2023-02-23T04:10:04.191Z,97262.88
2023-02-23T04:12:52.401Z,97260.41
2023-02-23T04:15:23.701Z,97257.91
2023-02-23T04:17:51.639Z,97261.31
2023-02-23T04:20:19.854Z,97264.00
2023-02-23T04:22:47.854Z,97264.25
2023-02-23T04:25:17.298Z,97267.94
2023-02-23T04:27:45.426Z,97273.59
2023-02-23T04:30:14.198Z,97271.88
2023-02-23T04:32:44.644Z,97271.72
2023-02-23T04:35:13.200Z,97269.53
2023-02-23T04:37:41.180Z,97273.28
2023-02-23T04:40:10.662Z,97264.34
2023-02-23T04:42:39.648Z,97267.22
2023-02-23T04:45:08.469Z,97274.41
2023-02-23T04:47:36.457Z,97278.38
2023-02-23T04:50:07.102Z,97285.31
2023-02-23T04:52:37.567Z,97278.28
2023-02-23T04:55:05.952Z,97287.97
2023-02-23T04:57:33.987Z,97293.53
2023-02-23T05:00:02.220Z,97285.44
2023-02-23T05:02:30.511Z,97284.47
2023-02-23T05:04:58.583Z,97286.59
2023-02-23T05:07:27.986Z,97290.91
2023-02-23T05:09:55.947Z,97288.19
2023-02-23T05:12:23.881Z,97287.72
2023-02-23T05:14:52.072Z,97282.44
2023-02-23T05:17:20.013Z,97286.53
2023-02-23T05:19:48.260Z,97297.56
2023-02-23T05:22:16.315Z,97297.88
2023-02-23T05:24:45.653Z,97305.38
2023-02-23T05:27:14.245Z,97302.31
2023-02-23T05:29:42.351Z,97301.28
2023-02-23T05:32:10.385Z,97304.56
2023-02-23T05:34:39.155Z,97308.91
2023-02-23T05:37:07.401Z,97304.19
2023-02-23T05:39:35.353Z,97299.75
2023-02-23T05:42:05.156Z,97304.84
2023-02-23T05:44:33.141Z,97308.00
2023-02-23T05:47:01.098Z,97307.00
2023-02-23T05:49:29.591Z,97309.75
2023-02-23T05:51:57.534Z,97312.66
2023-02-23T05:54:25.915Z,97320.94
2023-02-23T05:56:54.138Z,97322.56
2023-02-23T05:59:23.423Z,97325.53
2023-02-23T06:01:51.312Z,97321.19
2023-02-23T06:04:19.290Z,97319.25
2023-02-23T06:06:51.176Z,97323.88
2023-02-23T06:09:21.793Z,97323.06
2023-02-23T06:11:52.528Z,97330.78
2023-02-23T06:14:20.620Z,97332.25
2023-02-23T06:16:50.014Z,97334.19
2023-02-23T06:19:18.222Z,97338.06
2023-02-23T06:21:46.847Z,97342.19
2023-02-23T06:24:14.800Z,97346.75
2023-02-23T06:26:44.498Z,97347.63
2023-02-23T06:29:13.680Z,97348.50
2023-02-23T06:31:41.754Z,97352.38
2023-02-23T06:34:11.517Z,97356.63
2023-02-23T06:36:39.484Z,97361.84
2023-02-23T06:39:07.364Z,97361.94
2023-02-23T06:41:35.695Z,97364.28
2023-02-23T06:44:03.689Z,97368.41
2023-02-23T06:46:33.484Z,97368.88
2023-02-23T06:49:01.693Z,97371.16
2023-02-23T06:51:31.021Z,97372.63
2023-02-23T06:53:59.066Z,97377.97
2023-02-23T06:56:26.990Z,97381.31
2023-02-23T06:58:55.000Z,97381.06
2023-02-23T07:01:23.161Z,97373.09
2023-02-23T07:03:51.199Z,97388.00
2023-02-23T07:06:19.437Z,97383.63
2023-02-23T07:08:48.784Z,97379.75
2023-02-23T07:11:18.825Z,97393.25
2023-02-23T07:13:47.008Z,97392.69
2023-02-23T07:16:16.377Z,97396.78
2023-02-23T07:18:44.347Z,97394.22
2023-02-23T07:21:12.613Z,97395.19
2023-02-23T07:23:40.517Z,97399.56
2023-02-23T07:26:10.894Z,97402.78
2023-02-23T07:28:38.828Z,97397.22
2023-02-23T07:31:06.973Z,97397.72
2023-02-23T07:33:35.052Z,97398.69
2023-02-23T07:36:03.296Z,97393.25
2023-02-23T07:38:39.647Z,97392.84
2023-02-23T07:41:10.813Z,97394.19
2023-02-23T07:43:42.475Z,97391.41
2023-02-23T07:46:10.459Z,97386.81
2023-02-23T07:48:38.658Z,97392.38
2023-02-23T07:51:10.571Z,97398.94
2023-02-23T07:53:39.787Z,97398.06
2023-02-23T07:56:10.970Z,97400.97
2023-02-23T07:58:38.897Z,97397.53
2023-02-23T08:01:06.886Z,97400.72
2023-02-23T08:03:34.948Z,97401.34
2023-02-23T08:06:02.857Z,97407.16
2023-02-23T08:08:34.011Z,97409.81
2023-02-23T08:11:02.544Z,97412.72
2023-02-23T08:13:32.176Z,97407.03
2023-02-23T08:16:00.216Z,97408.56
2023-02-23T08:18:28.237Z,97408.94
2023-02-23T08:20:59.442Z,97405.53
2023-02-23T08:23:27.534Z,97412.06
2023-02-23T08:25:55.778Z,97412.25
2023-02-23T08:28:25.358Z,97413.00
2023-02-23T08:30:54.693Z,97410.91
2023-02-23T08:33:22.731Z,97413.00
2023-02-23T08:35:50.670Z,97415.66
2023-02-23T08:38:18.649Z,97412.22
2023-02-23T08:40:46.642Z,97413.09
2023-02-23T08:43:16.297Z,97421.00
2023-02-23T08:45:44.305Z,97412.66
2023-02-23T08:48:13.607Z,97414.06
2023-02-23T08:50:41.825Z,97411.88
2023-02-23T08:53:10.633Z,97413.75
2023-02-23T08:55:39.200Z,97411.66
2023-02-23T08:58:08.258Z,97409.75
2023-02-23T09:00:36.540Z,97413.91
2023-02-23T09:03:05.366Z,97423.59
2023-02-23T09:05:34.914Z,97420.31
2023-02-23T09:08:03.225Z,97418.53
2023-02-23T09:10:32.241Z,97428.41
2023-02-23T09:13:00.126Z,97434.22
2023-02-23T09:15:28.068Z,97436.97
2023-02-23T09:17:56.024Z,97440.66
2023-02-23T09:20:26.992Z,97449.25
2023-02-23T09:22:56.906Z,97447.72
2023-02-23T09:25:31.377Z,97447.13
2023-02-23T09:27:59.891Z,97453.47
2023-02-23T09:30:28.175Z,97462.09
2023-02-23T09:32:56.381Z,97464.41
2023-02-23T09:35:25.325Z,97462.81
2023-02-23T09:37:54.877Z,97471.78
2023-02-23T09:40:25.103Z,97470.69
2023-02-23T09:42:59.413Z,97472.34
2023-02-23T09:45:31.359Z,97474.78
2023-02-23T09:48:07.704Z,97470.06
2023-02-23T09:50:35.977Z,97470.59
2023-02-23T09:53:05.214Z,97476.63
2023-02-23T09:55:35.441Z,97470.91
2023-02-23T09:58:07.104Z,97469.16
2023-02-23T10:00:36.103Z,97474.00
2023-02-23T10:03:18.408Z,97471.16
2023-02-23T10:05:48.514Z,97477.34
2023-02-23T10:08:45.233Z,97477.22
2023-02-23T10:11:22.717Z,97474.81
2023-02-23T10:13:56.044Z,97480.25
2023-02-23T10:16:25.305Z,97476.09
2023-02-23T10:18:56.452Z,97482.78
2023-02-23T10:21:30.421Z,97479.81
2023-02-23T10:23:59.556Z,97479.19
2023-02-23T10:26:33.915Z,97474.69
2023-02-23T10:29:01.858Z,97475.72
2023-02-23T10:31:32.061Z,97477.66
2023-02-23T10:34:02.029Z,97478.09
2023-02-23T10:36:34.830Z,97478.31
2023-02-23T10:39:03.256Z,97473.09
2023-02-23T10:41:32.641Z,97489.66
2023-02-23T10:44:14.536Z,97482.59
2023-02-23T10:46:44.565Z,97492.81
2023-02-23T10:49:13.670Z,97477.34
2023-02-23T10:51:41.662Z,97476.41
2023-02-23T10:54:47.557Z,97484.31
2023-02-23T10:57:24.515Z,97486.03
2023-02-23T11:00:27.642Z,97481.38
2023-02-23T11:02:58.362Z,97477.44
2023-02-23T11:05:39.412Z,97482.41
2023-02-23T11:08:21.353Z,97473.53
2023-02-23T11:11:20.679Z,97476.56
2023-02-23T11:13:50.689Z,97470.44
2023-02-23T11:16:20.771Z,97468.84
2023-02-23T11:18:54.890Z,97468.84
2023-02-23T11:21:29.434Z,97477.56
2023-02-23T11:23:58.585Z,97462.69
2023-02-23T11:26:31.219Z,97467.72
2023-02-23T11:29:01.617Z,97458.09
2023-02-23T11:31:32.319Z,97457.69
2023-02-23T11:34:00.336Z,97460.09
2023-02-23T11:36:30.254Z,97456.72
2023-02-23T11:39:15.900Z,97448.78
2023-02-23T11:41:43.800Z,97447.41
2023-02-23T11:44:21.220Z,97453.41
2023-02-23T11:46:49.738Z,97457.50
2023-02-23T11:49:20.341Z,97448.50
2023-02-23T11:51:49.896Z,97460.13
2023-02-23T11:54:22.240Z,97456.53
2023-02-23T11:56:52.217Z,97460.03
2023-02-23T11:59:25.782Z,97453.00
2023-02-23T12:01:54.970Z,97454.09
2023-02-23T12:04:30.278Z,97464.22
2023-02-23T12:07:20.666Z,97452.97
2023-02-23T12:09:48.792Z,97446.03
2023-02-23T12:12:18.293Z,97454.28
2023-02-23T12:14:51.351Z,97447.81
2023-02-23T12:17:20.971Z,97446.28
2023-02-23T12:19:50.278Z,97452.47
2023-02-23T12:22:20.123Z,97446.97
2023-02-23T12:24:50.589Z,97447.19
2023-02-23T12:27:23.126Z,97451.81
2023-02-23T12:30:03.295Z,97452.16
2023-02-23T12:32:46.959Z,97449.50
2023-02-23T12:35:17.766Z,97447.31
2023-02-23T12:37:48.609Z,97447.09
2023-02-23T12:40:21.142Z,97452.44
2023-02-23T12:42:54.531Z,97454.50
2023-02-23T12:45:27.300Z,97450.41
2023-02-23T12:48:01.320Z,97456.63
2023-02-23T12:50:30.453Z,97460.38
2023-02-23T12:52:59.760Z,97458.53
2023-02-23T12:55:32.844Z,97460.25
2023-02-23T12:58:04.861Z,97460.72
2023-02-23T13:00:52.544Z,97460.13
2023-02-23T13:04:03.666Z,97460.59
2023-02-23T13:06:36.906Z,97460.97
2023-02-23T13:09:11.485Z,97456.66
2023-02-23T13:11:48.258Z,97464.03
2023-02-23T13:14:19.601Z,97465.00
2023-02-23T13:16:51.919Z,97470.09
2023-02-23T13:19:21.750Z,97471.41
2023-02-23T13:21:53.910Z,97483.38
2023-02-23T13:24:23.909Z,97483.81
2023-02-23T13:26:54.402Z,97500.44
2023-02-23T13:29:34.166Z,97495.34
2023-02-23T13:32:04.939Z,97497.56
2023-02-23T13:34:35.142Z,97507.44
2023-02-23T13:37:06.011Z,97508.78
2023-02-23T13:39:48.776Z,97507.81
2023-02-23T13:42:28.064Z,97509.78
2023-02-23T13:44:59.740Z,97499.06
2023-02-23T13:47:35.176Z,97505.59
2023-02-23T13:50:05.873Z,97507.13
2023-02-23T13:52:39.722Z,97513.63
2023-02-23T13:55:49.069Z,97516.84
2023-02-23T13:58:18.732Z,97525.75
2023-02-23T14:00:51.544Z,97524.41
2023-02-23T14:03:24.938Z,97525.56
2023-02-23T14:05:56.638Z,97521.50
2023-02-23T14:08:27.867Z,97524.75
2023-02-23T14:10:57.331Z,97526.22
2023-02-23T14:13:27.890Z,97531.44
2023-02-23T14:16:13.720Z,97538.44
2023-02-23T14:19:05.876Z,97533.69
2023-02-23T14:21:34.709Z,97536.91
2023-02-23T14:24:14.214Z,97534.81
2023-02-23T14:26:44.300Z,97547.25
2023-02-23T14:29:31.972Z,97544.25
2023-02-23T14:32:03.518Z,97537.25
2023-02-23T14:34:46.369Z,97536.94
2023-02-23T14:37:17.795Z,97528.59
2023-02-23T14:39:46.454Z,97535.66
2023-02-23T14:42:22.766Z,97538.53
2023-02-23T14:44:53.394Z,97539.91
2023-02-23T14:47:22.159Z,97529.78
2023-02-23T14:49:52.594Z,97530.94
2023-02-23T14:52:24.111Z,97535.91
2023-02-23T14:54:52.153Z,97537.31
2023-02-23T14:57:21.996Z,97531.16
2023-02-23T14:59:54.445Z,97526.88
2023-02-23T15:02:24.109Z,97537.16
2023-02-23T15:04:58.660Z,97529.75
2023-02-23T15:07:31.015Z,97527.97
2023-02-23T15:10:00.606Z,97535.09
2023-02-23T15:12:29.329Z,97532.53
2023-02-23T15:14:57.963Z,97528.53
2023-02-23T15:17:27.121Z,97527.47
2023-02-23T15:20:14.349Z,97535.75
2023-02-23T15:22:43.698Z,97540.22
2023-02-23T15:25:16.240Z,97541.47
2023-02-23T15:27:45.560Z,97543.00
2023-02-23T15:30:24.900Z,97543.00
2023-02-23T15:33:01.657Z,97537.72
2023-02-23T15:35:31.243Z,97547.81
2023-02-23T15:38:11.223Z,97541.09
2023-02-23T15:40:46.537Z,97545.00
2023-02-23T15:43:14.455Z,97551.44
2023-02-23T15:45:46.700Z,97554.31
2023-02-23T15:48:18.584Z,97556.78
2023-02-23T15:50:50.229Z,97547.94
2023-02-23T15:53:29.040Z,97547.53
2023-02-23T15:56:00.997Z,97554.91
2023-02-23T15:58:30.482Z,97543.66
2023-02-23T16:00:59.920Z,97551.25
2023-02-23T16:03:32.022Z,97547.16
2023-02-23T16:06:03.153Z,97542.03
2023-02-23T16:08:31.128Z,97545.97
2023-02-23T16:11:04.625Z,97540.94
2023-02-23T16:13:32.949Z,97525.78
2023-02-23T16:16:01.019Z,97536.13
2023-02-23T16:18:39.520Z,97535.38
2023-02-23T16:21:09.193Z,97540.69
2023-02-23T16:23:38.174Z,97540.78
2023-02-23T16:26:10.921Z,97540.84
2023-02-23T16:28:42.822Z,97539.09
2023-02-23T16:31:16.058Z,97545.94
2023-02-23T16:33:45.619Z,97542.31
2023-02-23T16:36:17.531Z,97538.78
2023-02-23T16:38:57.726Z,97541.06
2023-02-23T16:41:26.050Z,97542.31
2023-02-23T16:43:55.165Z,97537.59
2023-02-23T16:46:25.034Z,97541.91
2023-02-23T16:48:53.156Z,97543.28
2023-02-23T16:51:24.702Z,97547.00
2023-02-23T16:53:53.671Z,97551.34
2023-02-23T16:56:22.786Z,97550.44
2023-02-23T16:58:53.818Z,97555.75
2023-02-23T17:01:21.875Z,97546.75
2023-02-23T17:03:53.163Z,97555.16
2023-02-23T17:06:35.682Z,97547.06
2023-02-23T17:09:03.910Z,97543.44
2023-02-23T17:11:32.663Z,97546.91
2023-02-23T17:14:00.542Z,97540.78
2023-02-23T17:16:28.573Z,97542.78
2023-02-23T17:18:59.449Z,97549.63
2023-02-23T17:21:27.596Z,97551.84
2023-02-23T17:24:02.808Z,97551.69
2023-02-23T17:26:31.085Z,97549.13
2023-02-23T17:28:59.231Z,97541.03
2023-02-23T17:31:27.767Z,97534.72
2023-02-23T17:33:59.509Z,97531.16
2023-02-23T17:36:31.746Z,97541.38
2023-02-23T17:39:02.899Z,97544.44
2023-02-23T17:41:31.064Z,97536.44
2023-02-23T17:44:00.718Z,97541.75
2023-02-23T17:46:28.900Z,97542.78
2023-02-23T17:48:57.033Z,97538.22
2023-02-23T17:51:24.994Z,97542.81
2023-02-23T17:53:52.970Z,97541.84
2023-02-23T17:56:24.097Z,97547.28
2023-02-23T17:58:52.549Z,97552.09
2023-02-23T18:01:21.242Z,97551.38
2023-02-23T18:03:50.973Z,97550.88
2023-02-23T18:06:19.833Z,97549.97
2023-02-23T18:08:47.849Z,97552.59
2023-02-23T18:11:18.597Z,97552.56
2023-02-23T18:13:51.183Z,97562.97
2023-02-23T18:16:19.769Z,97561.75
2023-02-23T18:18:48.441Z,97552.22
2023-02-23T18:21:17.881Z,97554.69
2023-02-23T18:23:46.289Z,97553.00
2023-02-23T18:26:16.471Z,97559.84
2023-02-23T18:28:45.945Z,97555.53
2023-02-23T18:31:16.648Z,97565.72
2023-02-23T18:33:44.910Z,97561.47
2023-02-23T18:49:07.716Z,97557.91
2023-02-23T18:51:35.699Z,97551.34
2023-02-23T18:54:05.152Z,97551.91
2023-02-23T18:56:33.435Z,97560.13
2023-02-23T18:59:01.913Z,97565.97
2023-02-23T19:01:30.633Z,97568.44
2023-02-23T19:03:59.645Z,97563.09
2023-02-23T19:06:29.044Z,97570.75
2023-02-23T19:08:59.225Z,97574.06
2023-02-23T19:11:28.068Z,97573.31
2023-02-23T19:13:56.762Z,97573.50
2023-02-23T19:16:24.951Z,97571.31
2023-02-23T19:18:53.195Z,97565.34
2023-02-23T19:21:22.790Z,97567.06
2023-02-23T19:23:52.496Z,97565.88
2023-02-23T19:26:27.449Z,97573.56
2023-02-23T19:28:59.793Z,97580.22
2023-02-23T19:31:28.497Z,97576.16
2023-02-23T19:33:57.673Z,97585.31
2023-02-23T19:36:30.712Z,97590.22
2023-02-23T19:39:06.400Z,97596.00
2023-02-23T19:41:38.324Z,97600.19
2023-02-23T19:44:06.765Z,97584.66
2023-02-23T19:46:35.180Z,97590.06
2023-02-23T19:49:03.439Z,97597.97
2023-02-23T19:51:31.436Z,97602.31
2023-02-23T19:54:00.789Z,97594.16
2023-02-23T19:56:28.971Z,97595.56
2023-02-23T19:58:57.042Z,97594.59
2023-02-23T20:01:27.703Z,97594.91
2023-02-23T20:03:56.772Z,97602.16
2023-02-23T20:06:25.423Z,97600.44
2023-02-23T20:08:55.108Z,97592.59
2023-02-23T20:11:24.766Z,97594.81
2023-02-23T20:13:53.124Z,97595.06
2023-02-23T20:16:21.531Z,97597.72
2023-02-23T20:18:49.625Z,97593.13
2023-02-23T20:21:18.722Z,97583.22
2023-02-23T20:23:47.366Z,97581.84
2023-02-23T20:26:17.786Z,97578.00
2023-02-23T20:28:47.181Z,97572.50
2023-02-23T20:31:15.596Z,97576.63
2023-02-23T20:33:44.174Z,97568.72
2023-02-23T20:36:12.499Z,97567.47
2023-02-23T20:38:40.632Z,97570.53
2023-02-23T20:41:08.948Z,97572.50
2023-02-23T20:43:36.883Z,97572.03
2023-02-23T20:46:06.671Z,97563.19
2023-02-23T20:48:35.813Z,97574.38
2023-02-23T20:51:07.226Z,97571.31
2023-02-23T20:53:35.425Z,97571.19
2023-02-23T20:56:05.908Z,97570.84
2023-02-23T20:58:34.079Z,97563.50
2023-02-23T21:01:22.996Z,97566.31
2023-02-23T21:03:52.829Z,97559.88
2023-02-23T21:06:21.104Z,97564.16
2023-02-23T21:08:49.746Z,97557.53
2023-02-23T21:11:18.082Z,97565.94
2023-02-23T21:13:46.571Z,97552.97
2023-02-23T21:16:15.037Z,97556.94
2023-02-23T21:18:43.317Z,97558.13
2023-02-23T21:21:15.431Z,97559.25
2023-02-23T21:23:44.833Z,97557.81
2023-02-23T21:26:15.825Z,97567.66
2023-02-23T21:28:44.123Z,97563.75
2023-02-23T21:31:13.180Z,97557.59
2023-02-23T21:33:41.369Z,97561.41
2023-02-23T21:36:10.888Z,97548.38
2023-02-23T21:38:40.508Z,97549.25
2023-02-23T21:41:08.992Z,97546.69
2023-02-23T21:43:37.048Z,97546.56
2023-02-23T21:46:08.629Z,97540.53
2023-02-23T21:48:36.663Z,97544.22
2023-02-23T21:51:05.273Z,97531.88
2023-02-23T21:53:33.249Z,97542.50
2023-02-23T21:56:11.137Z,97540.69
2023-02-23T21:58:39.311Z,97533.66
2023-02-23T22:01:13.643Z,97533.09
2023-02-23T22:03:45.108Z,97536.25
2023-02-23T22:06:13.522Z,97537.25
2023-02-23T22:08:43.096Z,97531.69
2023-02-23T22:11:17.803Z,97522.00
2023-02-23T22:13:46.006Z,97516.34
2023-02-23T22:16:14.513Z,97519.22
2023-02-23T22:18:42.694Z,97516.16
2023-02-23T22:21:11.739Z,97511.63
2023-02-23T22:23:39.941Z,97507.22
2023-02-23T22:26:08.141Z,97513.38
2023-02-23T22:28:37.625Z,97506.94
2023-02-23T22:31:08.386Z,97506.94
2023-02-23T22:33:36.589Z,97502.94
2023-02-23T22:36:06.778Z,97497.47
2023-02-23T22:38:34.895Z,97496.44
2023-02-23T22:41:06.234Z,97498.09
2023-02-23T22:43:34.394Z,97493.66
2023-02-23T22:46:04.098Z,97489.53
2023-02-23T22:48:32.108Z,97489.97
2023-02-23T22:51:00.278Z,97490.47
2023-02-23T22:53:28.424Z,97492.69
2023-02-23T22:55:56.791Z,97488.91
2023-02-23T22:58:26.445Z,97500.81
2023-02-23T23:01:04.155Z,97486.97
2023-02-23T23:03:35.401Z,97488.06
2023-02-23T23:06:04.651Z,97476.75
2023-02-23T23:08:36.456Z,97480.56
2023-02-23T23:11:09.363Z,97477.03
2023-02-23T23:13:40.414Z,97479.44
2023-02-23T23:16:16.738Z,97468.78
2023-02-23T23:18:55.706Z,97467.72
2023-02-23T23:21:24.986Z,97468.31
2023-02-23T23:23:54.182Z,97465.63
2023-02-23T23:26:23.786Z,97467.88
2023-02-23T23:28:52.783Z,97476.66
2023-02-23T23:31:22.785Z,97468.19
2023-02-23T23:33:51.627Z,97479.03
2023-02-23T23:36:22.350Z,97488.41
2023-02-23T23:38:50.514Z,97476.59
2023-02-23T23:41:19.055Z,97485.44
2023-02-23T23:43:48.044Z,97482.66
2023-02-23T23:46:17.599Z,97484.66
2023-02-23T23:48:45.924Z,97475.50
2023-02-23T23:51:15.027Z,97472.97
2023-02-23T23:53:44.734Z,97475.81
2023-02-23T23:56:13.022Z,97474.25
2023-02-23T23:58:41.218Z,97477.34
